Kakodemer — FAA9524 — position and weather

sailwx.info

Track history (hours):
 
Tides and Currents Weather Stations Pressure Air Temp Water Temp Dewpoint Dewpoint Depression Visibility Wind Speed Wind Dir Waves Ship Positions

Kakodemer

Last reported at 2017-Sep-24 14:34 UTC. Time now 2017-Nov-19 03:07 UTC.
Position N 47°33' W 002°54'.
Warning: this ship's position is 55 days out of date.

Length 10 m.

Type: Sailing vessel. MMSI: 227173340.

Date/timePositionNaut miles runAvg speedWind from/ knotsBaromVisibWave heightAir tempDewpointWater temp
2017-Sep-24 14:34N 47°33' W 002°54'0 1.0
2017-Sep-24 14:29N 47°33' W 002°54'2 4.1
2017-Sep-24 14:00N 47°31' W 002°56'3 5.4
2017-Sep-24 13:30N 47°29' W 002°58'2 3.5
2017-Sep-24 13:00N 47°27' W 002°58'2 3.3
2017-Sep-24 12:30N 47°26' W 002°59'2 3.7
2017-Sep-24 12:00N 47°24' W 003°01'3 5.3
2017-Sep-24 11:30N 47°24' W 003°05'2 4.5
2017-Sep-24 11:00N 47°24' W 003°08'2 4.2
2017-Sep-24 10:30N 47°23' W 003°11'1 2.8
2017-Sep-24 09:59N 47°22' W 003°13'  
Track history (hours):
 
Tides and Currents Weather Stations Pressure Air Temp Water Temp Dewpoint Dewpoint Depression Visibility Wind Speed Wind Dir Waves Ship Positions

Kakodemer

Last reported at 2017-Sep-24 14:34 UTC. Time now 2017-Nov-19 03:07 UTC.
Position N 47°33' W 002°54'.
Warning: this ship's position is 55 days out of date.

Length 10 m.

Type: Sailing vessel. MMSI: 227173340.

Date/timePositionNaut miles runAvg speedWind from/ knotsBaromVisibWave heightAir tempDewpointWater temp
2017-Sep-24 14:34N 47°33' W 002°54'0 1.0
2017-Sep-24 14:29N 47°33' W 002°54'2 4.1
2017-Sep-24 14:00N 47°31' W 002°56'3 5.4
2017-Sep-24 13:30N 47°29' W 002°58'2 3.5
2017-Sep-24 13:00N 47°27' W 002°58'2 3.3
2017-Sep-24 12:30N 47°26' W 002°59'2 3.7
2017-Sep-24 12:00N 47°24' W 003°01'3 5.3
2017-Sep-24 11:30N 47°24' W 003°05'2 4.5
2017-Sep-24 11:00N 47°24' W 003°08'2 4.2
2017-Sep-24 10:30N 47°23' W 003°11'1 2.8
2017-Sep-24 09:59N 47°22' W 003°13'  

Dump ship's entire track history